Time;durP1;ratioP1;P1;durP2;ratioP2;P2;SDS_P1;SDS_P2;PMS_P1;PMS_P2;Temp;Humidity;BMP_temperature;BMP_pressure;BME280_temperature;BME280_humidity;BME280_pressure;Samples;Min_cycle;Max_cycle;Signal;HPM_P1;HPM_P2
2023/12/14 00:01:32;;;;;;;26.58;12.68;;;;;;;;;;4970940;28;20383;-67
2023/12/14 00:07:00;;;;;;;34.28;15.27;;;;;;;;;;4969100;28;20558;-67
2023/12/14 00:09:26;;;;;;;36.50;15.82;;;;;;;;;;4970188;28;20105;-67
2023/12/14 00:11:51;;;;;;;38.60;18.05;;;;;;;;;;4970487;28;20110;-67
2023/12/14 00:14:16;;;;;;;46.70;20.00;;;;;;;;;;4970879;28;20153;-67
2023/12/14 00:16:41;;;;;;;44.05;19.50;;;;;;;;;;4970133;28;20027;-67
2023/12/14 00:19:07;;;;;;;68.30;20.95;;;;;;;;;;4970330;28;20023;-68
2023/12/14 00:21:32;;;;;;;57.30;19.67;;;;;;;;;;4971120;28;20027;-68
2023/12/14 00:23:57;;;;;;;73.70;19.60;;;;;;;;;;4970328;28;20019;-68
2023/12/14 00:26:22;;;;;;;81.53;18.85;;;;;;;;;;4969494;28;20022;-66
2023/12/14 00:28:48;;;;;;;102.55;20.45;;;;;;;;;;4970684;28;20027;-67
2023/12/14 00:31:13;;;;;;;80.78;19.92;;;;;;;;;;4970687;28;20025;-67
2023/12/14 00:33:38;;;;;;;108.00;18.02;;;;;;;;;;4970542;28;20029;-67
2023/12/14 00:36:04;;;;;;;67.28;17.50;;;;;;;;;;4970040;28;20486;-67
2023/12/14 00:38:29;;;;;;;75.82;19.20;;;;;;;;;;4975324;28;20030;-66
2023/12/14 00:40:54;;;;;;;66.63;19.52;;;;;;;;;;4968091;28;20018;-67
2023/12/14 00:43:19;;;;;;;69.72;19.67;;;;;;;;;;4995266;23;20039;-64
2023/12/14 00:45:45;;;;;;;65.68;18.10;;;;;;;;;;4969966;28;20081;-63
2023/12/14 00:48:10;;;;;;;71.53;18.40;;;;;;;;;;4972859;28;20073;-64
2023/12/14 00:50:36;;;;;;;76.80;18.48;;;;;;;;;;4971200;28;20027;-64
2023/12/14 00:53:01;;;;;;;53.53;17.33;;;;;;;;;;4970750;28;20056;-64
2023/12/14 00:55:26;;;;;;;58.75;18.88;;;;;;;;;;4969581;28;20019;-64
2023/12/14 00:57:51;;;;;;;62.30;20.58;;;;;;;;;;4970317;28;20022;-64
2023/12/14 01:00:17;;;;;;;44.40;17.90;;;;;;;;;;4968526;28;20053;-66
2023/12/14 01:02:42;;;;;;;39.30;15.15;;;;;;;;;;4971194;28;20095;-64
2023/12/14 01:05:07;;;;;;;42.38;17.10;;;;;;;;;;4967020;28;20026;-64
2023/12/14 01:07:33;;;;;;;42.50;16.13;;;;;;;;;;4969681;28;20023;-65
2023/12/14 01:09:58;;;;;;;51.53;16.48;;;;;;;;;;4969148;28;20106;-65
2023/12/14 01:12:23;;;;;;;39.58;16.05;;;;;;;;;;4969860;28;20102;-65
2023/12/14 01:14:48;;;;;;;33.67;13.95;;;;;;;;;;4969841;28;20070;-63
2023/12/14 01:17:14;;;;;;;35.15;14.23;;;;;;;;;;4969317;28;20069;-65
2023/12/14 01:19:42;;;;;;;32.92;14.75;;;;;;;;;;4969937;28;20062;-65
2023/12/14 01:22:07;;;;;;;40.30;15.38;;;;;;;;;;4970008;28;20510;-64
2023/12/14 01:24:32;;;;;;;36.03;15.27;;;;;;;;;;4969280;28;20026;-65
2023/12/14 01:26:57;;;;;;;38.25;14.25;;;;;;;;;;4968539;28;20150;-63
2023/12/14 01:29:23;;;;;;;37.45;14.60;;;;;;;;;;4970069;28;20054;-64
2023/12/14 01:31:48;;;;;;;36.70;14.43;;;;;;;;;;4970920;28;20019;-63
2023/12/14 01:34:15;;;;;;;36.72;15.15;;;;;;;;;;4970912;28;20023;-65
2023/12/14 01:36:40;;;;;;;34.63;13.75;;;;;;;;;;4970156;28;20023;-64
2023/12/14 01:39:05;;;;;;;30.98;13.80;;;;;;;;;;4974374;28;21001;-63
2023/12/14 01:41:31;;;;;;;36.55;15.57;;;;;;;;;;4970129;28;20051;-64
2023/12/14 01:43:56;;;;;;;41.72;14.73;;;;;;;;;;4975813;28;20114;-65
2023/12/14 01:46:21;;;;;;;41.97;16.00;;;;;;;;;;4968719;28;20537;-65
2023/12/14 01:48:46;;;;;;;37.53;14.75;;;;;;;;;;4972028;28;20019;-64
2023/12/14 01:51:11;;;;;;;44.35;15.18;;;;;;;;;;4969858;28;20042;-65
2023/12/14 01:53:37;;;;;;;37.10;14.57;;;;;;;;;;4970191;28;20031;-63
2023/12/14 01:56:02;;;;;;;41.38;14.25;;;;;;;;;;4969584;28;20022;-65
2023/12/14 01:58:27;;;;;;;36.55;14.38;;;;;;;;;;4965557;28;20145;-64
2023/12/14 02:01:05;;;;;;;44.65;14.88;;;;;;;;;;4968646;28;20027;-65
2023/12/14 02:03:31;;;;;;;35.30;13.30;;;;;;;;;;4974136;28;20069;-64
2023/12/14 02:05:57;;;;;;;35.67;13.32;;;;;;;;;;4968812;28;20015;-64
2023/12/14 02:08:23;;;;;;;45.42;13.85;;;;;;;;;;4975428;28;20129;-63
2023/12/14 02:10:48;;;;;;;44.97;13.13;;;;;;;;;;4972882;28;20526;-64
2023/12/14 02:13:14;;;;;;;38.47;13.80;;;;;;;;;;4973364;28;20045;-64
2023/12/14 02:15:39;;;;;;;41.80;13.45;;;;;;;;;;4973076;28;20030;-64
2023/12/14 02:18:04;;;;;;;65.30;13.57;;;;;;;;;;4972411;28;20711;-63
2023/12/14 02:20:29;;;;;;;41.53;13.30;;;;;;;;;;4972478;28;20026;-65
2023/12/14 02:22:55;;;;;;;37.78;11.18;;;;;;;;;;4972924;28;20505;-64
2023/12/14 02:25:20;;;;;;;49.72;13.40;;;;;;;;;;4972884;28;20022;-65
2023/12/14 02:27:46;;;;;;;58.17;13.45;;;;;;;;;;4972542;28;20059;-64
2023/12/14 02:30:12;;;;;;;48.10;13.13;;;;;;;;;;4971193;28;20030;-64
2023/12/14 02:32:38;;;;;;;41.78;13.90;;;;;;;;;;4977964;28;20083;-64
2023/12/14 02:35:03;;;;;;;48.40;12.48;;;;;;;;;;4973199;28;20023;-65
2023/12/14 02:37:28;;;;;;;54.40;13.43;;;;;;;;;;4975865;28;20105;-65
2023/12/14 02:39:53;;;;;;;38.00;13.63;;;;;;;;;;4973253;28;20549;-65
2023/12/14 02:42:19;;;;;;;57.60;13.95;;;;;;;;;;4972876;28;20467;-65
2023/12/14 02:44:44;;;;;;;54.75;13.13;;;;;;;;;;4970650;28;20128;-65
2023/12/14 02:47:09;;;;;;;43.30;14.13;;;;;;;;;;4971422;28;20089;-65
2023/12/14 02:49:34;;;;;;;63.90;14.70;;;;;;;;;;4972364;28;20026;-65
2023/12/14 02:51:59;;;;;;;47.20;13.95;;;;;;;;;;4971698;28;20027;-65
2023/12/14 02:54:25;;;;;;;72.30;15.68;;;;;;;;;;4972155;28;20046;-64
2023/12/14 02:56:50;;;;;;;68.03;15.95;;;;;;;;;;4971815;28;20109;-64
2023/12/14 02:59:15;;;;;;;52.70;14.52;;;;;;;;;;4970313;28;20031;-64
2023/12/14 03:01:40;;;;;;;52.90;15.10;;;;;;;;;;4972460;28;20015;-65
2023/12/14 03:04:06;;;;;;;59.20;15.80;;;;;;;;;;4971849;28;20070;-63
2023/12/14 03:06:31;;;;;;;54.65;16.08;;;;;;;;;;4974656;28;20010;-65
2023/12/14 03:08:56;;;;;;;58.78;15.93;;;;;;;;;;4974684;28;20023;-65
2023/12/14 03:11:23;;;;;;;67.38;16.10;;;;;;;;;;4973794;28;20034;-64
2023/12/14 03:13:48;;;;;;;47.63;15.40;;;;;;;;;;4971549;28;20022;-64
2023/12/14 03:16:13;;;;;;;56.47;14.50;;;;;;;;;;4970946;28;20150;-64
2023/12/14 03:18:39;;;;;;;48.00;13.82;;;;;;;;;;4971762;28;20106;-62
2023/12/14 03:21:04;;;;;;;41.38;11.38;;;;;;;;;;4971850;28;20047;-65
2023/12/14 03:23:29;;;;;;;33.65;11.70;;;;;;;;;;4971784;28;20031;-65
2023/12/14 03:25:54;;;;;;;33.40;11.60;;;;;;;;;;4971583;28;20102;-65
2023/12/14 03:28:19;;;;;;;33.47;12.40;;;;;;;;;;4971073;28;20027;-65
2023/12/14 03:30:45;;;;;;;45.50;11.50;;;;;;;;;;4970207;28;20054;-65
2023/12/14 03:33:10;;;;;;;34.90;11.13;;;;;;;;;;4971478;28;20023;-64
2023/12/14 03:35:35;;;;;;;38.00;13.30;;;;;;;;;;4971497;28;20041;-64
2023/12/14 03:38:01;;;;;;;36.38;11.63;;;;;;;;;;4976927;28;20019;-65
2023/12/14 03:40:26;;;;;;;43.72;13.07;;;;;;;;;;4969980;28;20018;-65
2023/12/14 03:42:51;;;;;;;36.28;12.73;;;;;;;;;;4971354;28;20022;-64
2023/12/14 03:45:16;;;;;;;36.88;11.75;;;;;;;;;;4969170;28;20027;-65
2023/12/14 03:47:41;;;;;;;32.22;12.60;;;;;;;;;;4971101;28;20015;-64
2023/12/14 03:50:07;;;;;;;35.05;12.43;;;;;;;;;;4971140;28;20022;-65
2023/12/14 03:52:32;;;;;;;39.78;12.10;;;;;;;;;;4971612;28;20583;-63
2023/12/14 03:54:57;;;;;;;27.70;11.95;;;;;;;;;;4969331;28;20015;-65
2023/12/14 03:57:23;;;;;;;36.30;12.73;;;;;;;;;;4970842;28;20454;-64
2023/12/14 03:59:51;;;;;;;24.90;11.38;;;;;;;;;;4968712;28;20026;-65
2023/12/14 04:02:16;;;;;;;30.25;10.02;;;;;;;;;;4971180;28;20090;-64
2023/12/14 04:04:41;;;;;;;30.67;11.85;;;;;;;;;;4968651;28;20615;-65
2023/12/14 04:07:07;;;;;;;25.77;10.70;;;;;;;;;;4972061;28;20019;-64
2023/12/14 04:09:32;;;;;;;33.42;10.77;;;;;;;;;;4970895;28;20026;-64
2023/12/14 04:11:57;;;;;;;28.33;10.77;;;;;;;;;;4970909;28;20022;-64
2023/12/14 04:14:22;;;;;;;24.02;10.52;;;;;;;;;;4969555;28;20042;-64
2023/12/14 04:16:47;;;;;;;31.75;11.23;;;;;;;;;;4968811;28;20091;-64
2023/12/14 04:19:13;;;;;;;27.65;10.95;;;;;;;;;;4970861;28;20027;-64
2023/12/14 04:21:38;;;;;;;31.75;10.15;;;;;;;;;;4971009;28;20085;-65
2023/12/14 04:24:03;;;;;;;33.35;11.55;;;;;;;;;;4970547;28;20018;-64
2023/12/14 04:26:29;;;;;;;36.22;13.27;;;;;;;;;;4970336;28;20038;-64
2023/12/14 04:28:54;;;;;;;29.17;12.95;;;;;;;;;;4969070;28;20018;-64
2023/12/14 04:31:19;;;;;;;35.13;14.63;;;;;;;;;;4970433;28;20025;-63
2023/12/14 04:33:44;;;;;;;32.88;12.38;;;;;;;;;;4970783;28;20470;-64
2023/12/14 04:36:10;;;;;;;35.92;12.85;;;;;;;;;;4969957;28;20019;-64
2023/12/14 04:38:35;;;;;;;28.85;12.50;;;;;;;;;;4971113;28;20027;-63
2023/12/14 04:41:00;;;;;;;26.90;11.90;;;;;;;;;;4969297;28;20030;-64
2023/12/14 04:43:29;;;;;;;24.95;11.75;;;;;;;;;;4969829;28;20030;-64
2023/12/14 04:45:54;;;;;;;26.42;12.13;;;;;;;;;;4969884;28;20022;-65
2023/12/14 04:48:19;;;;;;;26.60;11.13;;;;;;;;;;4969893;28;20500;-65
2023/12/14 04:50:45;;;;;;;25.98;10.65;;;;;;;;;;4970585;28;20398;-64
2023/12/14 04:53:10;;;;;;;29.63;10.52;;;;;;;;;;4968871;28;20375;-63
2023/12/14 04:55:35;;;;;;;24.05;11.40;;;;;;;;;;4969443;28;20426;-64
2023/12/14 04:58:01;;;;;;;26.20;11.45;;;;;;;;;;4969816;28;20391;-63
2023/12/14 05:00:26;;;;;;;28.52;12.63;;;;;;;;;;4964009;28;20549;-64
2023/12/14 05:02:51;;;;;;;29.08;12.13;;;;;;;;;;4970009;28;20031;-65
2023/12/14 05:05:16;;;;;;;26.23;12.32;;;;;;;;;;4966972;28;20022;-64
2023/12/14 05:07:41;;;;;;;24.10;10.13;;;;;;;;;;4971810;28;20011;-63
2023/12/14 05:10:07;;;;;;;22.52;8.95;;;;;;;;;;4969602;28;20026;-62
2023/12/14 05:12:32;;;;;;;22.52;9.45;;;;;;;;;;4970390;28;20023;-64
2023/12/14 05:14:57;;;;;;;24.20;9.93;;;;;;;;;;4968013;28;20220;-62
2023/12/14 05:17:23;;;;;;;19.85;9.45;;;;;;;;;;4969566;28;20450;-64
2023/12/14 05:19:48;;;;;;;20.38;9.18;;;;;;;;;;4969673;28;20023;-63
2023/12/14 05:22:13;;;;;;;20.63;9.40;;;;;;;;;;4970267;28;20054;-64
2023/12/14 05:24:38;;;;;;;28.98;10.40;;;;;;;;;;4969549;28;20019;-64
2023/12/14 05:27:04;;;;;;;24.38;9.43;;;;;;;;;;4969626;28;20109;-67
2023/12/14 05:29:29;;;;;;;19.27;9.82;;;;;;;;;;4973347;28;20114;-65
2023/12/14 05:31:54;;;;;;;19.58;8.23;;;;;;;;;;4973692;28;20062;-65
2023/12/14 05:34:19;;;;;;;22.73;9.57;;;;;;;;;;4973854;28;20511;-63
2023/12/14 05:36:45;;;;;;;27.02;9.38;;;;;;;;;;4974058;28;20434;-65
2023/12/14 05:39:10;;;;;;;19.55;8.35;;;;;;;;;;4974218;28;20479;-63
2023/12/14 05:41:39;;;;;;;19.50;7.97;;;;;;;;;;4975186;28;20022;-63
2023/12/14 05:44:04;;;;;;;20.63;9.20;;;;;;;;;;4973061;28;20089;-65
2023/12/14 05:46:29;;;;;;;20.77;8.68;;;;;;;;;;4973746;28;20642;-65
2023/12/14 05:48:55;;;;;;;20.30;9.23;;;;;;;;;;4973111;28;20066;-65
2023/12/14 05:51:27;;;;;;;19.05;9.13;;;;;;;;;;4965822;28;20069;-65
2023/12/14 05:53:52;;;;;;;18.52;8.73;;;;;;;;;;4967371;28;20023;-65
2023/12/14 05:56:17;;;;;;;18.02;7.45;;;;;;;;;;4972120;28;20022;-66
2023/12/14 05:58:43;;;;;;;15.30;8.07;;;;;;;;;;4970276;28;20114;-64
2023/12/14 06:01:08;;;;;;;14.52;7.95;;;;;;;;;;4972719;28;20435;-66
2023/12/14 06:03:33;;;;;;;16.70;6.45;;;;;;;;;;4973262;28;20034;-64
2023/12/14 06:05:58;;;;;;;13.45;6.57;;;;;;;;;;4969925;28;20034;-64
2023/12/14 06:08:23;;;;;;;15.82;7.15;;;;;;;;;;4973707;28;20482;-65
2023/12/14 06:10:49;;;;;;;14.23;6.13;;;;;;;;;;4970713;28;20034;-63
2023/12/14 06:13:14;;;;;;;12.00;5.68;;;;;;;;;;4972912;28;20019;-64
2023/12/14 06:15:39;;;;;;;15.60;6.88;;;;;;;;;;4970394;28;20072;-65
2023/12/14 06:18:05;;;;;;;11.13;5.95;;;;;;;;;;4972744;28;20710;-64
2023/12/14 06:20:30;;;;;;;16.80;7.95;;;;;;;;;;4972395;28;20118;-64
2023/12/14 06:22:55;;;;;;;14.45;7.15;;;;;;;;;;4972428;28;20097;-65
2023/12/14 06:25:20;;;;;;;17.38;7.72;;;;;;;;;;4972458;28;20425;-66
2023/12/14 06:27:45;;;;;;;17.52;7.60;;;;;;;;;;4971937;28;20027;-65
2023/12/14 06:30:11;;;;;;;17.75;7.55;;;;;;;;;;4970976;28;20018;-64
2023/12/14 06:32:37;;;;;;;12.70;6.05;;;;;;;;;;4972572;28;20093;-67
2023/12/14 06:35:03;;;;;;;15.35;7.15;;;;;;;;;;4974397;28;20078;-65
2023/12/14 06:37:28;;;;;;;15.95;7.60;;;;;;;;;;4968189;28;20402;-63
2023/12/14 06:39:54;;;;;;;16.67;8.25;;;;;;;;;;4970882;28;20391;-65
2023/12/14 06:42:19;;;;;;;17.27;8.20;;;;;;;;;;4971695;28;20094;-65
2023/12/14 06:44:44;;;;;;;13.88;7.45;;;;;;;;;;4970458;28;20121;-65
2023/12/14 06:47:09;;;;;;;15.57;7.88;;;;;;;;;;4971287;28;20019;-65
2023/12/14 06:49:34;;;;;;;18.40;8.35;;;;;;;;;;4972592;28;20458;-67
2023/12/14 06:52:00;;;;;;;16.67;8.55;;;;;;;;;;4972587;28;20115;-65
2023/12/14 06:54:25;;;;;;;17.77;8.30;;;;;;;;;;4970655;28;20035;-65
2023/12/14 06:56:50;;;;;;;15.82;7.97;;;;;;;;;;4966904;28;20037;-65
2023/12/14 06:59:15;;;;;;;18.88;9.27;;;;;;;;;;4968383;28;20046;-64
2023/12/14 07:01:40;;;;;;;16.70;8.65;;;;;;;;;;4974077;28;20023;-65
2023/12/14 07:04:07;;;;;;;19.60;8.20;;;;;;;;;;4973319;28;20057;-66
2023/12/14 07:06:34;;;;;;;17.95;8.98;;;;;;;;;;4977917;28;20033;-62
2023/12/14 07:09:00;;;;;;;18.20;8.60;;;;;;;;;;4971831;28;20077;-65
2023/12/14 07:11:25;;;;;;;18.80;8.30;;;;;;;;;;4974576;28;20494;-65
2023/12/14 07:13:50;;;;;;;14.60;7.35;;;;;;;;;;4970973;28;20030;-65
2023/12/14 07:16:17;;;;;;;18.15;7.50;;;;;;;;;;4971538;28;20034;-65
2023/12/14 07:18:42;;;;;;;14.90;6.65;;;;;;;;;;4972041;28;20384;-65
2023/12/14 07:21:08;;;;;;;15.48;7.82;;;;;;;;;;4967439;28;20054;-64
2023/12/14 07:23:34;;;;;;;15.65;6.20;;;;;;;;;;4968783;28;20026;-64
2023/12/14 07:25:59;;;;;;;14.52;6.13;;;;;;;;;;4971287;28;20037;-62
2023/12/14 07:28:24;;;;;;;17.70;6.60;;;;;;;;;;4968612;28;20058;-66
2023/12/14 07:30:49;;;;;;;15.18;5.85;;;;;;;;;;4970936;28;20023;-64
2023/12/14 07:33:15;;;;;;;21.38;8.10;;;;;;;;;;4969589;28;20034;-64
2023/12/14 07:35:40;;;;;;;16.50;7.32;;;;;;;;;;4970192;28;20029;-64
2023/12/14 07:38:06;;;;;;;18.92;8.45;;;;;;;;;;4975726;28;20097;-65
2023/12/14 07:40:31;;;;;;;17.58;7.78;;;;;;;;;;4974099;28;20391;-64
2023/12/14 07:42:56;;;;;;;20.60;8.68;;;;;;;;;;4971388;28;20022;-65
2023/12/14 07:45:21;;;;;;;19.98;9.35;;;;;;;;;;4967546;28;20027;-67
2023/12/14 07:47:47;;;;;;;20.67;9.70;;;;;;;;;;4971194;28;20172;-65
2023/12/14 07:50:12;;;;;;;18.00;8.57;;;;;;;;;;4970786;28;20519;-65
2023/12/14 07:52:37;;;;;;;18.98;9.32;;;;;;;;;;4971184;28;20271;-65
2023/12/14 07:55:03;;;;;;;20.70;9.68;;;;;;;;;;4967142;28;20022;-65
2023/12/14 07:57:28;;;;;;;18.50;9.55;;;;;;;;;;4975988;28;20042;-66
2023/12/14 07:59:53;;;;;;;26.45;10.90;;;;;;;;;;4964021;28;20118;-66
2023/12/14 08:02:19;;;;;;;22.00;11.57;;;;;;;;;;4970967;28;20027;-65
2023/12/14 08:04:44;;;;;;;32.25;12.75;;;;;;;;;;4967539;28;20025;-67
2023/12/14 08:07:09;;;;;;;24.17;10.27;;;;;;;;;;4978380;28;20050;-66
2023/12/14 08:09:34;;;;;;;22.73;9.93;;;;;;;;;;4971044;28;20029;-66
2023/12/14 08:11:59;;;;;;;20.40;11.27;;;;;;;;;;4970600;28;20050;-67
2023/12/14 08:14:25;;;;;;;22.70;9.25;;;;;;;;;;4968970;28;20114;-64
2023/12/14 08:16:50;;;;;;;26.45;10.40;;;;;;;;;;4970069;28;20107;-64
2023/12/14 08:19:15;;;;;;;23.58;9.98;;;;;;;;;;4970179;28;20062;-66
2023/12/14 08:21:40;;;;;;;22.58;10.18;;;;;;;;;;4970631;28;20038;-65
2023/12/14 08:24:07;;;;;;;21.45;9.95;;;;;;;;;;4966639;28;20094;-66
2023/12/14 08:26:32;;;;;;;24.02;9.75;;;;;;;;;;4970058;28;20011;-66
2023/12/14 08:28:58;;;;;;;19.92;10.23;;;;;;;;;;4968434;28;20501;-64
2023/12/14 08:31:24;;;;;;;24.58;11.38;;;;;;;;;;4972004;28;20031;-66
2023/12/14 08:33:49;;;;;;;27.60;11.07;;;;;;;;;;4969885;28;20051;-63
2023/12/14 08:36:17;;;;;;;27.45;11.65;;;;;;;;;;4966149;28;20019;-66
2023/12/14 08:38:42;;;;;;;26.33;12.68;;;;;;;;;;4973109;28;20025;-61
2023/12/14 08:41:07;;;;;;;30.17;13.38;;;;;;;;;;4970571;28;20022;-63
2023/12/14 08:43:32;;;;;;;29.63;12.48;;;;;;;;;;4968789;28;20031;-69
2023/12/14 08:45:58;;;;;;;28.50;12.60;;;;;;;;;;4971344;28;20022;-65
2023/12/14 08:48:23;;;;;;;30.38;12.10;;;;;;;;;;4965828;28;20035;-66
2023/12/14 08:50:48;;;;;;;26.80;11.40;;;;;;;;;;4968447;28;20105;-66
2023/12/14 08:53:14;;;;;;;29.83;11.75;;;;;;;;;;4967026;28;20097;-66
2023/12/14 08:55:39;;;;;;;22.70;11.30;;;;;;;;;;4966580;28;20390;-66
2023/12/14 08:58:04;;;;;;;29.05;11.13;;;;;;;;;;4969528;28;20401;-65
2023/12/14 09:00:29;;;;;;;23.63;10.90;;;;;;;;;;4967078;28;20422;-66
2023/12/14 09:02:55;;;;;;;24.88;11.40;;;;;;;;;;4967580;28;20026;-63
2023/12/14 09:05:20;;;;;;;24.85;10.98;;;;;;;;;;4968006;28;20038;-66
2023/12/14 09:07:46;;;;;;;22.95;9.63;;;;;;;;;;4970616;28;20031;-66
2023/12/14 09:10:11;;;;;;;19.98;8.95;;;;;;;;;;4969526;28;20019;-65
2023/12/14 09:12:36;;;;;;;17.98;8.65;;;;;;;;;;4971644;28;20018;-64
2023/12/14 09:15:02;;;;;;;17.85;8.50;;;;;;;;;;4968808;28;20094;-66
2023/12/14 09:17:32;;;;;;;17.70;8.73;;;;;;;;;;4970552;28;20042;-65
2023/12/14 09:19:58;;;;;;;20.15;7.95;;;;;;;;;;4969964;28;20104;-65
2023/12/14 09:22:23;;;;;;;15.75;7.57;;;;;;;;;;4971547;28;20119;-66
2023/12/14 09:24:48;;;;;;;17.52;7.30;;;;;;;;;;4978813;28;20109;-66
2023/12/14 09:27:13;;;;;;;21.98;6.50;;;;;;;;;;4970353;28;20046;-65
2023/12/14 09:29:38;;;;;;;16.65;6.80;;;;;;;;;;4967184;28;20059;-66
2023/12/14 09:32:04;;;;;;;13.77;6.78;;;;;;;;;;4976172;28;20122;-63
2023/12/14 09:34:29;;;;;;;13.05;6.80;;;;;;;;;;4964988;28;20479;-64
2023/12/14 09:36:54;;;;;;;12.77;6.70;;;;;;;;;;4968755;28;20031;-65
2023/12/14 09:39:21;;;;;;;11.27;6.50;;;;;;;;;;4964883;28;20053;-65
2023/12/14 09:41:47;;;;;;;14.10;6.55;;;;;;;;;;4969009;28;20023;-67
2023/12/14 09:44:12;;;;;;;9.30;5.25;;;;;;;;;;4966518;28;20490;-67
2023/12/14 09:46:38;;;;;;;10.63;5.35;;;;;;;;;;4969379;28;20025;-66
2023/12/14 09:49:04;;;;;;;10.77;5.25;;;;;;;;;;4967176;28;20434;-67
2023/12/14 09:51:29;;;;;;;11.35;5.40;;;;;;;;;;4970200;28;20019;-66
2023/12/14 09:53:58;;;;;;;14.73;5.55;;;;;;;;;;4967882;28;20402;-67
2023/12/14 09:56:26;;;;;;;14.02;5.63;;;;;;;;;;4969534;28;20094;-67
2023/12/14 09:58:52;;;;;;;14.75;5.40;;;;;;;;;;4967201;28;20080;-66
2023/12/14 10:01:20;;;;;;;11.52;5.07;;;;;;;;;;4969224;28;20015;-64
2023/12/14 10:03:46;;;;;;;10.75;4.93;;;;;;;;;;4970827;28;20018;-66
2023/12/14 10:06:12;;;;;;;10.65;5.60;;;;;;;;;;4965282;28;20031;-67
2023/12/14 10:08:38;;;;;;;11.27;5.65;;;;;;;;;;4964997;28;20429;-65
2023/12/14 10:11:14;;;;;;;20.25;6.07;;;;;;;;;;4969843;28;20090;-65
2023/12/14 10:13:39;;;;;;;16.13;5.88;;;;;;;;;;4968562;28;20114;-65
2023/12/14 10:16:05;;;;;;;14.48;6.18;;;;;;;;;;4967041;28;20133;-64
2023/12/14 10:18:31;;;;;;;10.13;5.05;;;;;;;;;;4974815;28;20077;-66
2023/12/14 10:20:56;;;;;;;9.98;5.68;;;;;;;;;;4974054;28;20081;-65
2023/12/14 10:23:22;;;;;;;10.43;4.60;;;;;;;;;;4977190;28;20030;-66
2023/12/14 10:25:47;;;;;;;10.52;5.72;;;;;;;;;;4975671;28;20036;-66
2023/12/14 10:28:13;;;;;;;11.52;6.00;;;;;;;;;;4971988;28;20163;-65
2023/12/14 10:30:39;;;;;;;14.80;5.78;;;;;;;;;;4970756;28;20019;-65
2023/12/14 10:33:04;;;;;;;11.13;5.32;;;;;;;;;;4974061;28;20479;-66
2023/12/14 10:35:29;;;;;;;9.70;5.28;;;;;;;;;;4977325;28;20142;-67
2023/12/14 10:37:55;;;;;;;11.35;5.30;;;;;;;;;;4974328;28;20548;-66
2023/12/14 10:40:21;;;;;;;13.05;6.40;;;;;;;;;;4972132;28;20462;-68
2023/12/14 10:42:47;;;;;;;12.90;5.85;;;;;;;;;;4972168;28;20032;-64
2023/12/14 10:45:13;;;;;;;10.85;5.75;;;;;;;;;;4975076;28;20038;-66
2023/12/14 10:47:39;;;;;;;10.90;5.25;;;;;;;;;;4972073;28;20038;-65
2023/12/14 10:50:05;;;;;;;13.15;6.20;;;;;;;;;;4974347;28;20026;-66
2023/12/14 10:52:33;;;;;;;15.55;5.82;;;;;;;;;;4973434;28;20030;-66
2023/12/14 10:55:02;;;;;;;10.88;5.78;;;;;;;;;;4973184;28;20045;-65
2023/12/14 10:57:28;;;;;;;16.88;6.25;;;;;;;;;;4968876;28;20034;-68
2023/12/14 11:00:00;;;;;;;15.80;7.20;;;;;;;;;;4970445;28;20042;-67
2023/12/14 11:02:25;;;;;;;13.15;5.95;;;;;;;;;;4976674;28;20662;-68
2023/12/14 11:04:54;;;;;;;15.52;6.75;;;;;;;;;;4973291;28;20032;-67
2023/12/14 11:07:39;;;;;;;10.15;5.28;;;;;;;;;;4968795;28;20042;-65
2023/12/14 11:10:05;;;;;;;13.75;4.97;;;;;;;;;;4966259;28;20082;-65
2023/12/14 11:12:30;;;;;;;11.82;5.75;;;;;;;;;;4970480;28;20642;-66
2023/12/14 11:14:55;;;;;;;11.30;5.40;;;;;;;;;;4969921;28;20109;-64
2023/12/14 11:17:20;;;;;;;16.80;6.03;;;;;;;;;;4970909;28;20023;-66
2023/12/14 11:19:47;;;;;;;16.20;5.90;;;;;;;;;;4970829;28;20038;-68
2023/12/14 11:22:15;;;;;;;12.93;5.68;;;;;;;;;;4971833;28;20042;-67
2023/12/14 11:24:50;;;;;;;9.98;4.82;;;;;;;;;;4970915;28;20019;-64
2023/12/14 11:27:15;;;;;;;10.73;5.20;;;;;;;;;;4963120;28;20074;-65
2023/12/14 11:29:41;;;;;;;10.05;4.85;;;;;;;;;;4970526;28;20023;-64
2023/12/14 11:32:07;;;;;;;10.65;5.13;;;;;;;;;;4971309;28;20027;-65
2023/12/14 11:34:32;;;;;;;10.60;4.13;;;;;;;;;;4967731;28;20034;-66
2023/12/14 11:36:58;;;;;;;11.68;4.30;;;;;;;;;;4968284;28;20198;-64
2023/12/14 11:39:23;;;;;;;10.43;4.55;;;;;;;;;;4973343;28;20030;-65
2023/12/14 11:42:04;;;;;;;9.77;3.83;;;;;;;;;;4965494;28;20593;-67
2023/12/14 11:44:32;;;;;;;11.13;4.95;;;;;;;;;;4967174;28;20065;-66
2023/12/14 11:46:58;;;;;;;9.00;4.32;;;;;;;;;;4971076;28;20019;-67
2023/12/14 11:49:27;;;;;;;10.45;4.43;;;;;;;;;;4971766;28;20070;-66
2023/12/14 11:51:52;;;;;;;;;;;;;;;;;;4970273;28;20050;-65
2023/12/14 11:54:18;;;;;;;11.27;4.45;;;;;;;;;;4964593;28;19918;-65
2023/12/14 11:56:46;;;;;;;12.40;5.18;;;;;;;;;;4970129;28;20039;-67
2023/12/14 11:59:12;;;;;;;9.88;4.00;;;;;;;;;;4966413;28;20034;-63
2023/12/14 12:01:37;;;;;;;14.10;5.22;;;;;;;;;;4966326;28;20023;-67
2023/12/14 12:04:08;;;;;;;12.82;4.78;;;;;;;;;;4970587;28;21129;-64
2023/12/14 12:06:33;;;;;;;9.80;4.85;;;;;;;;;;4965801;28;20019;-68
2023/12/14 12:08:59;;;;;;;11.68;5.47;;;;;;;;;;4968874;28;20671;-67
2023/12/14 12:11:25;;;;;;;11.40;5.88;;;;;;;;;;4970506;28;20023;-65
2023/12/14 12:13:57;;;;;;;12.90;4.85;;;;;;;;;;4968616;28;20036;-65
2023/12/14 12:16:22;;;;;;;12.40;5.90;;;;;;;;;;4968163;28;20177;-65
2023/12/14 12:18:48;;;;;;;13.52;6.55;;;;;;;;;;4966458;28;20106;-68
2023/12/14 12:21:13;;;;;;;14.52;7.10;;;;;;;;;;4972328;28;20050;-66
2023/12/14 12:23:38;;;;;;;23.25;7.47;;;;;;;;;;4970487;28;20037;-65
2023/12/14 12:26:04;;;;;;;14.50;6.85;;;;;;;;;;4967802;28;20050;-67
2023/12/14 12:28:30;;;;;;;13.68;5.97;;;;;;;;;;4966142;28;20027;-70
2023/12/14 12:30:55;;;;;;;12.95;6.15;;;;;;;;;;4963809;28;20039;-65
2023/12/14 12:33:21;;;;;;;15.25;6.88;;;;;;;;;;4970325;28;20030;-66
2023/12/14 12:35:46;;;;;;;17.38;5.85;;;;;;;;;;4963806;28;20038;-65
2023/12/14 12:38:12;;;;;;;16.38;5.75;;;;;;;;;;4964349;28;20027;-67
2023/12/14 12:40:37;;;;;;;14.98;5.70;;;;;;;;;;4964301;28;20034;-66
2023/12/14 12:43:03;;;;;;;13.82;6.47;;;;;;;;;;4970254;28;20025;-66
2023/12/14 12:45:28;;;;;;;14.55;5.47;;;;;;;;;;4995497;23;20050;-69
2023/12/14 12:47:54;;;;;;;10.57;4.82;;;;;;;;;;4958692;28;20023;-68
2023/12/14 12:50:20;;;;;;;8.40;4.32;;;;;;;;;;4958220;28;20037;-69
2023/12/14 12:52:48;;;;;;;12.63;5.38;;;;;;;;;;4958400;28;20027;-69
2023/12/14 12:55:13;;;;;;;13.13;5.97;;;;;;;;;;4956701;28;20044;-69
2023/12/14 12:57:40;;;;;;;12.23;5.35;;;;;;;;;;4949552;28;20143;-68
2023/12/14 13:00:07;;;;;;;9.82;3.55;;;;;;;;;;4944291;28;20030;-67
2023/12/14 13:02:33;;;;;;;10.95;3.85;;;;;;;;;;4947424;28;20074;-69
2023/12/14 13:04:59;;;;;;;14.98;5.13;;;;;;;;;;4953577;28;20082;-67
2023/12/14 13:07:25;;;;;;;8.02;3.58;;;;;;;;;;4950629;28;20023;-69
2023/12/14 13:09:50;;;;;;;11.23;4.30;;;;;;;;;;4946917;28;20083;-67
2023/12/14 13:12:15;;;;;;;10.32;3.95;;;;;;;;;;4946886;28;20020;-68
2023/12/14 13:14:41;;;;;;;10.50;4.53;;;;;;;;;;4951008;28;20035;-69
2023/12/14 13:17:06;;;;;;;9.80;4.70;;;;;;;;;;4945203;28;20100;-68
2023/12/14 13:19:31;;;;;;;9.48;4.25;;;;;;;;;;4950590;28;20487;-68
2023/12/14 13:21:58;;;;;;;11.43;4.03;;;;;;;;;;4954128;28;20511;-69
2023/12/14 13:24:23;;;;;;;9.85;4.60;;;;;;;;;;4946640;28;20021;-68
2023/12/14 13:26:49;;;;;;;9.93;4.55;;;;;;;;;;4944392;28;20032;-68
2023/12/14 13:29:14;;;;;;;11.82;5.43;;;;;;;;;;4940619;28;20016;-68
2023/12/14 13:31:39;;;;;;;11.75;4.95;;;;;;;;;;4950082;28;20288;-69
2023/12/14 13:34:04;;;;;;;12.40;4.25;;;;;;;;;;4942607;28;20187;-68
2023/12/14 13:36:30;;;;;;;10.48;4.72;;;;;;;;;;4945398;28;20770;-68
2023/12/14 13:38:56;;;;;;;11.45;5.50;;;;;;;;;;4953688;28;20110;-69
2023/12/14 13:41:21;;;;;;;10.15;4.72;;;;;;;;;;4945611;28;20483;-66
2023/12/14 13:43:46;;;;;;;14.73;5.90;;;;;;;;;;4946164;28;20031;-69
2023/12/14 13:46:11;;;;;;;10.98;5.03;;;;;;;;;;4944775;28;20127;-68
2023/12/14 13:48:37;;;;;;;10.07;4.07;;;;;;;;;;4947571;28;20031;-68
2023/12/14 13:51:02;;;;;;;10.52;4.50;;;;;;;;;;4953151;28;20046;-69
2023/12/14 13:53:27;;;;;;;20.00;4.93;;;;;;;;;;4952213;28;20019;-68
2023/12/14 13:55:52;;;;;;;10.15;4.75;;;;;;;;;;4954000;28;20027;-68
2023/12/14 13:58:18;;;;;;;16.17;5.07;;;;;;;;;;4958737;28;20028;-69
2023/12/14 14:00:43;;;;;;;11.15;5.68;;;;;;;;;;4949297;28;20030;-67
2023/12/14 14:03:09;;;;;;;8.18;3.80;;;;;;;;;;4961161;28;20026;-67
2023/12/14 14:05:34;;;;;;;13.82;5.28;;;;;;;;;;4955077;28;20474;-67
2023/12/14 14:08:00;;;;;;;10.60;4.65;;;;;;;;;;4958010;28;20022;-68
2023/12/14 14:10:25;;;;;;;10.13;5.50;;;;;;;;;;4955389;28;20042;-70
2023/12/14 14:12:51;;;;;;;13.95;5.82;;;;;;;;;;4957658;28;20019;-69
2023/12/14 14:15:16;;;;;;;14.68;6.43;;;;;;;;;;4952416;28;20030;-68
2023/12/14 14:17:42;;;;;;;11.55;5.70;;;;;;;;;;4958079;28;20031;-68
2023/12/14 14:20:09;;;;;;;13.95;5.85;;;;;;;;;;4950232;28;20050;-68